Lubbock, TX (79424)

2:59 PM CDT on October 21, 2014 (GMT -0500)
South West Lubbock | Change Station
CLOSE
Current Station
Personal Weather Station
Location: Lubbock, TX
Elevation: 3284 ft
Nearby Weather Stations

Elev 3284 ft 33.52 °N, 101.96 °W | Updated 39 seconds ago

Mostly Cloudy
Mostly Cloudy
73.0 °F
Feels Like 73 °F
N
9.8
Wind Variable Wind from South
Gusts 9.8 mph

Today
High -- | Low -- °F
--% Chance of Precip.
Yesterday
High -- | Low -- °F
Precip. -- in
7:57 AM 7:06 PM
Waning Crescent, 4% visible
Pressure 29.96 in
Visibility 10.0 miles
Clouds Scattered Clouds 5000 ft
Heat Index 73 °F
Dew Point 13 °F
Humidity 10%
Rainfall 0.00 in
Snow Depth Not available.
UV 5 out of 12
Pollen 3.90 out of 12
Air Quality Not available.
Flu Activity Sporadic
METAR KLBB 211953Z 15009KT 10SM SCT050 23/10 A3007 RMK AO2 SLP144 MDT CU N T02330100

More Conditions Fewer Conditions

Pressure 29.96 in
Visibility 10.0 miles
Clouds Scattered Clouds 5000 ft
Heat Index 73 °F
Dew Point 13 °F
Humidity 10%
Rainfall 0.00 in
Snow Depth Not available.
UV 5 out of 12
Pollen 3.90 out of 12
Air Quality Not available.
Flu Activity Sporadic
METAR KLBB 211953Z 15009KT 10SM SCT050 23/10 A3007 RMK AO2 SLP144 MDT CU N T02330100

More Conditions Fewer Conditions

10-Day Weather Forecast

Almanac

Astronomy

Oct. 21, 2014 Rise Set
Actual Time 7:57 AM CDT 7:06 PM CDT
Civil Twilight 7:31 AM CDT 7:32 PM CDT
Nautical Twilight 7:02 AM CDT 8:01 PM CDT
Astronomical Twilight 6:34 AM CDT 8:29 PM CDT
Moon 5:49 AM CDT 5:57 PM CDT
Length of Visible Light 12h 00m
Length of Day
11h 09m
Tomorrow will be 1m 57s shorter.
Waning Crescent, 4% of the Moon is Illuminated
Today
Waning Crescent
Oct 23
New
Oct 30
First Quarter
Nov 6
Full
Nov 14
Last Quarter

Today's Extremes

State Highs State Lows

Community

WunderPhotos

Upload Photos

1,763,754 photos uploaded!

Nearby

Air Quality

  Air Quality AQ Index Pollutant
Tuesday Good
PM10
Tuesday Good
OZONE
Wednesday Good
PM10
Wednesday Good
OZONE
Thursday Good
PM10
Thursday Good
OZONE
Friday Good
PM10
Friday Good
OZONE

Snow Depth

Station Depth Elevation
No new snow has been reported.

Earthquake Activity

City Distance Mag. Time & Date
No recent earthquake activity has been reported nearby.
Minimum magnitude displayed is 2.5.

Coastal Water Temperatures

Place Temperature
No Stations Reporting

Nearby Weather Stations